createdAt,value
2023-01-10T00:00:11.366Z,11.53
2023-01-10T00:05:14.804Z,11.54
2023-01-10T00:10:18.151Z,11.52
2023-01-10T00:15:22.009Z,11.51
2023-01-10T00:20:25.733Z,11.47
2023-01-10T00:25:29.317Z,11.45
2023-01-10T00:30:32.751Z,11.43
2023-01-10T00:35:35.896Z,11.42
2023-01-10T00:40:40.162Z,11.41
2023-01-10T00:45:46.377Z,11.41
2023-01-10T00:50:50.465Z,11.38
2023-01-10T00:55:56.945Z,11.39
2023-01-10T01:01:00.425Z,11.34
2023-01-10T01:06:07.651Z,11.30
2023-01-10T01:11:11.066Z,11.25
2023-01-10T01:16:14.699Z,11.19
2023-01-10T01:21:18.868Z,11.12
2023-01-10T01:26:22.973Z,11.13
2023-01-10T01:31:26.696Z,11.08
2023-01-10T01:36:30.218Z,11.02
2023-01-10T01:41:33.380Z,11.00
2023-01-10T01:46:39.678Z,11.01
2023-01-10T01:51:43.331Z,11.04
2023-01-10T01:56:59.456Z,11.05
2023-01-10T02:02:19.742Z,10.99
2023-01-10T02:07:26.483Z,10.92
2023-01-10T02:12:32.367Z,10.83
2023-01-10T02:17:36.002Z,10.74
2023-01-10T02:22:57.481Z,10.72
2023-01-10T02:28:43.244Z,10.73
2023-01-10T02:34:09.563Z,10.74
2023-01-10T02:39:59.398Z,10.74
2023-01-10T02:45:13.201Z,10.74
2023-01-10T02:50:43.902Z,10.76
2023-01-10T02:56:03.245Z,10.76
2023-01-10T03:01:33.899Z,10.76
2023-01-10T03:06:48.145Z,10.76
2023-01-10T03:11:58.194Z,10.71
2023-01-10T03:17:09.626Z,10.78
2023-01-10T03:22:15.153Z,10.83
2023-01-10T03:27:39.501Z,10.91
2023-01-10T03:32:43.475Z,10.95
2023-01-10T03:38:02.190Z,11.05
2023-01-10T03:43:19.715Z,11.07
2023-01-10T03:48:26.924Z,11.08
2023-01-10T03:53:32.312Z,11.05
2023-01-10T03:58:35.913Z,10.99
2023-01-10T04:03:39.447Z,10.96
2023-01-10T04:08:42.807Z,10.95
2023-01-10T04:13:45.901Z,10.91
2023-01-10T04:18:49.093Z,10.87
2023-01-10T04:23:52.140Z,10.85
2023-01-10T04:28:55.492Z,10.83
2023-01-10T04:33:59.070Z,10.80
2023-01-10T04:39:03.140Z,10.78
2023-01-10T04:44:06.958Z,10.75
2023-01-10T04:49:11.915Z,10.79
2023-01-10T04:54:15.381Z,10.80
2023-01-10T04:59:18.520Z,10.85
2023-01-10T05:04:21.805Z,10.91
2023-01-10T05:09:25.234Z,10.97
2023-01-10T05:14:28.424Z,11.02
2023-01-10T05:19:31.395Z,11.10
2023-01-10T05:24:35.531Z,11.18
2023-01-10T05:29:39.376Z,11.23
2023-01-10T05:34:43.808Z,11.32
2023-01-10T05:39:47.225Z,11.40
2023-01-10T05:44:50.713Z,11.47
2023-01-10T05:49:55.183Z,11.51
2023-01-10T05:54:58.754Z,11.57
2023-01-10T06:00:04.228Z,11.71
2023-01-10T06:05:14.697Z,11.83
2023-01-10T06:10:17.886Z,12.04
2023-01-10T06:15:20.850Z,12.54
2023-01-10T06:20:25.119Z,12.95
2023-01-10T06:25:28.577Z,12.91
2023-01-10T06:30:32.344Z,12.87
2023-01-10T06:35:36.609Z,12.88
2023-01-10T06:40:39.995Z,12.89
2023-01-10T06:45:43.640Z,12.95
2023-01-10T06:50:47.096Z,12.99
2023-01-10T06:55:51.076Z,13.08
2023-01-10T07:00:54.848Z,13.18
2023-01-10T07:06:02.381Z,13.29
2023-01-10T07:11:06.627Z,13.36
2023-01-10T07:16:12.735Z,13.45
2023-01-10T07:21:16.686Z,13.41
2023-01-10T07:26:20.100Z,13.31
2023-01-10T07:31:24.921Z,13.26
2023-01-10T07:36:29.002Z,13.28
2023-01-10T07:41:33.147Z,13.32
2023-01-10T07:46:36.507Z,13.36
2023-01-10T07:51:40.043Z,13.43
2023-01-10T07:56:43.480Z,13.56
2023-01-10T08:01:46.801Z,13.69
2023-01-10T08:06:51.098Z,13.79
2023-01-10T08:11:54.481Z,13.83
2023-01-10T08:16:57.951Z,13.90
2023-01-10T08:22:01.649Z,13.97
2023-01-10T08:27:05.168Z,14.06
2023-01-10T08:32:09.882Z,14.20
2023-01-10T08:37:14.518Z,14.33
2023-01-10T08:42:18.171Z,14.51
2023-01-10T08:47:21.729Z,14.65
2023-01-10T08:52:25.139Z,14.75
2023-01-10T08:57:29.252Z,14.92
2023-01-10T09:02:32.886Z,14.99
2023-01-10T09:07:40.491Z,15.10
2023-01-10T09:12:43.974Z,15.16
2023-01-10T09:17:47.434Z,15.24
2023-01-10T09:22:50.922Z,15.38
2023-01-10T09:28:00.247Z,15.47
2023-01-10T09:33:05.290Z,15.57
2023-01-10T09:38:14.928Z,15.75
2023-01-10T09:43:36.995Z,15.71
2023-01-10T09:49:06.147Z,15.89
2023-01-10T09:54:23.764Z,15.74
2023-01-10T09:59:36.070Z,15.50
2023-01-10T10:04:40.797Z,15.39
2023-01-10T10:09:44.481Z,15.63
2023-01-10T10:15:04.400Z,15.75
2023-01-10T10:20:19.871Z,15.90
2023-01-10T10:25:41.951Z,16.18
2023-01-10T10:31:16.427Z,16.21
2023-01-10T10:36:27.401Z,16.03
2023-01-10T10:41:43.292Z,15.93
2023-01-10T10:46:46.658Z,15.96
2023-01-10T10:51:54.142Z,16.12
2023-01-10T10:56:57.553Z,16.17
2023-01-10T11:02:01.344Z,16.20
2023-01-10T11:07:04.760Z,16.19
2023-01-10T11:12:13.960Z,16.27
2023-01-10T11:17:25.609Z,16.17
2023-01-10T11:22:31.485Z,16.06
2023-01-10T11:27:54.616Z,16.03
2023-01-10T11:33:03.838Z,16.14
2023-01-10T11:38:22.890Z,16.04
2023-01-10T11:43:29.567Z,16.00
2023-01-10T11:49:08.470Z,15.94
2023-01-10T11:54:18.041Z,15.83
2023-01-10T11:59:21.591Z,15.76
2023-01-10T12:04:27.669Z,15.72
2023-01-10T12:09:43.574Z,15.67
2023-01-10T12:14:47.943Z,15.66
2023-01-10T12:19:53.533Z,15.64
2023-01-10T12:25:00.088Z,15.63
2023-01-10T12:30:16.555Z,15.62
2023-01-10T12:35:24.606Z,15.60
2023-01-10T12:41:01.221Z,15.56
2023-01-10T12:46:56.542Z,15.51
2023-01-10T12:51:58.761Z,15.49
2023-01-10T12:57:15.106Z,15.48
2023-01-10T13:02:22.189Z,15.49
2023-01-10T13:07:33.763Z,15.45
2023-01-10T13:12:41.357Z,15.42
2023-01-10T13:18:39.912Z,15.41
2023-01-10T13:23:50.330Z,15.42
2023-01-10T13:29:00.702Z,15.42
2023-01-10T13:34:08.597Z,15.34
2023-01-10T13:39:38.621Z,15.25
2023-01-10T13:45:00.942Z,15.18
2023-01-10T13:50:24.408Z,15.14
2023-01-10T13:55:32.955Z,15.11
2023-01-10T14:00:36.678Z,15.09
2023-01-10T14:05:48.723Z,15.01
2023-01-10T14:11:10.257Z,14.93
2023-01-10T14:16:33.467Z,14.84
2023-01-10T14:21:45.606Z,14.77
2023-01-10T14:26:50.151Z,14.66
2023-01-10T14:31:54.457Z,14.56
2023-01-10T14:37:03.514Z,14.42
2023-01-10T14:42:13.394Z,14.35
2023-01-10T14:47:35.863Z,14.20
2023-01-10T14:52:42.706Z,14.06
2023-01-10T14:58:00.672Z,13.92
2023-01-10T15:03:04.902Z,13.79
2023-01-10T15:08:26.517Z,13.65
2023-01-10T15:13:31.819Z,13.53
2023-01-10T15:18:41.314Z,13.41
2023-01-10T15:23:50.088Z,13.29
2023-01-10T15:29:14.789Z,13.18
2023-01-10T15:34:21.659Z,13.06
2023-01-10T15:39:30.444Z,13.02
2023-01-10T15:44:44.674Z,12.93
2023-01-10T15:49:53.592Z,12.85
2023-01-10T15:54:57.129Z,12.78
2023-01-10T16:00:00.783Z,12.72
2023-01-10T16:05:10.005Z,12.66
2023-01-10T16:10:22.423Z,12.61
2023-01-10T16:15:29.369Z,12.57
2023-01-10T16:20:36.988Z,12.52
2023-01-10T16:25:43.825Z,12.53
2023-01-10T16:30:48.395Z,12.53
2023-01-10T16:35:56.364Z,12.53
2023-01-10T16:41:01.986Z,12.50
2023-01-10T16:46:05.681Z,12.47
2023-01-10T16:51:19.043Z,12.47
2023-01-10T16:56:28.346Z,12.49
2023-01-10T17:01:41.248Z,12.44
2023-01-10T17:06:44.948Z,12.44
2023-01-10T17:11:56.315Z,12.42
2023-01-10T17:17:05.136Z,12.39
2023-01-10T17:22:09.648Z,12.36
2023-01-10T17:27:13.255Z,12.35
2023-01-10T17:32:17.588Z,12.32
2023-01-10T17:37:21.054Z,12.30
2023-01-10T17:42:24.775Z,12.31
2023-01-10T17:47:31.057Z,12.30
2023-01-10T17:52:34.388Z,12.31
2023-01-10T17:57:39.114Z,12.30
2023-01-10T18:02:42.654Z,12.27
2023-01-10T18:07:46.081Z,12.28
2023-01-10T18:12:50.291Z,12.28
2023-01-10T18:17:54.154Z,12.30
2023-01-10T18:22:57.688Z,12.31
2023-01-10T18:28:01.638Z,12.32
2023-01-10T18:33:06.539Z,12.34
2023-01-10T18:38:11.249Z,12.34
2023-01-10T18:43:14.737Z,12.38
2023-01-10T18:48:17.984Z,12.39
2023-01-10T18:53:22.427Z,12.43
2023-01-10T18:58:33.980Z,12.46
2023-01-10T19:03:38.040Z,12.48
2023-01-10T19:08:43.101Z,12.50
2023-01-10T19:13:54.981Z,12.51
2023-01-10T19:19:04.757Z,12.55
2023-01-10T19:24:25.440Z,12.55
2023-01-10T19:29:39.300Z,12.56
2023-01-10T19:34:44.778Z,12.56
2023-01-10T19:39:49.532Z,12.55
2023-01-10T19:44:52.967Z,12.55
2023-01-10T19:49:56.305Z,12.56
2023-01-10T19:55:00.364Z,12.54
2023-01-10T20:00:05.237Z,12.55
2023-01-10T20:05:14.759Z,12.56
2023-01-10T20:10:19.343Z,12.56
2023-01-10T20:15:23.048Z,12.59
2023-01-10T20:20:26.507Z,12.59
2023-01-10T20:25:30.532Z,12.61
2023-01-10T20:30:34.151Z,12.62
2023-01-10T20:35:38.697Z,12.64
2023-01-10T20:40:42.099Z,12.66
2023-01-10T20:45:45.123Z,12.66
2023-01-10T20:50:50.072Z,12.69
2023-01-10T20:55:59.906Z,12.71
2023-01-10T21:01:04.590Z,12.69
2023-01-10T21:06:08.362Z,12.67
2023-01-10T21:11:14.245Z,12.68
2023-01-10T21:16:19.375Z,12.66
2023-01-10T21:21:23.046Z,12.65
2023-01-10T21:26:27.104Z,12.64
2023-01-10T21:31:31.131Z,12.59
2023-01-10T21:36:34.624Z,12.57
2023-01-10T21:41:38.448Z,12.60
2023-01-10T21:46:42.011Z,12.56
2023-01-10T21:51:45.505Z,12.55
2023-01-10T21:56:48.488Z,12.52
2023-01-10T22:01:51.944Z,12.52
2023-01-10T22:06:57.218Z,12.51
2023-01-10T22:12:00.605Z,12.50
2023-01-10T22:17:04.266Z,12.49
2023-01-10T22:22:08.938Z,12.50
2023-01-10T22:27:12.735Z,12.51
2023-01-10T22:32:16.219Z,12.52
2023-01-10T22:37:19.336Z,12.52
2023-01-10T22:42:22.415Z,12.51
2023-01-10T22:47:25.548Z,12.50
2023-01-10T22:52:28.558Z,12.48
2023-01-10T22:57:33.198Z,12.47
2023-01-10T23:02:37.566Z,12.48
2023-01-10T23:07:41.244Z,12.49
2023-01-10T23:12:44.865Z,12.47
2023-01-10T23:17:48.693Z,12.49
2023-01-10T23:22:54.285Z,12.47
2023-01-10T23:27:57.655Z,12.45
2023-01-10T23:33:00.823Z,12.46
2023-01-10T23:38:03.961Z,12.46
2023-01-10T23:43:07.369Z,12.46
2023-01-10T23:48:11.807Z,12.47
2023-01-10T23:53:15.912Z,12.48
2023-01-10T23:58:21.887Z,12.48
